createdAt,value
2018-07-26T00:00:27.968Z,10.67
2018-07-26T00:02:57.450Z,11.13
2018-07-26T00:05:26.981Z,11.27
2018-07-26T00:07:56.455Z,11.53
2018-07-26T00:10:25.948Z,11.63
2018-07-26T00:12:55.552Z,11.43
2018-07-26T00:15:25.096Z,11.57
2018-07-26T00:17:54.549Z,11.13
2018-07-26T00:20:24.017Z,11.43
2018-07-26T00:22:53.533Z,11.43
2018-07-26T00:25:23.052Z,11.00
2018-07-26T00:27:52.874Z,11.97
2018-07-26T00:30:22.363Z,11.50
2018-07-26T00:32:51.816Z,11.10
2018-07-26T00:35:21.321Z,10.97
2018-07-26T00:37:50.784Z,11.63
2018-07-26T00:40:20.265Z,11.47
2018-07-26T00:42:49.723Z,11.43
2018-07-26T00:45:19.172Z,11.30
2018-07-26T00:47:48.722Z,11.90
2018-07-26T00:50:18.185Z,11.77
2018-07-26T00:52:47.779Z,11.87
2018-07-26T00:55:17.250Z,12.10
2018-07-26T00:57:47.044Z,11.63
2018-07-26T01:00:16.891Z,11.70
2018-07-26T01:02:46.332Z,11.37
2018-07-26T01:05:15.805Z,11.97
2018-07-26T01:07:45.244Z,11.87
2018-07-26T01:10:14.705Z,11.60
2018-07-26T01:12:44.485Z,12.13
2018-07-26T01:15:13.959Z,11.73
2018-07-26T01:17:43.443Z,11.73
2018-07-26T01:20:12.934Z,11.90
2018-07-26T01:22:42.377Z,12.13
2018-07-26T01:25:11.864Z,11.40
2018-07-26T01:27:41.318Z,12.63
2018-07-26T01:30:10.864Z,11.70
2018-07-26T01:32:40.321Z,11.90
2018-07-26T01:35:09.785Z,12.17
2018-07-26T01:37:39.281Z,11.90
2018-07-26T01:40:08.720Z,11.77
2018-07-26T01:42:49.279Z,11.83
2018-07-26T01:45:18.832Z,12.10
2018-07-26T01:47:48.282Z,11.77
2018-07-26T01:50:17.736Z,12.60
2018-07-26T01:52:47.174Z,12.43
2018-07-26T01:55:16.643Z,11.90
2018-07-26T01:57:46.081Z,12.77
2018-07-26T02:00:15.876Z,12.10
2018-07-26T02:02:45.317Z,12.67
2018-07-26T02:05:14.756Z,13.60
2018-07-26T02:07:44.245Z,12.87
2018-07-26T02:10:13.717Z,13.03
2018-07-26T02:12:43.209Z,14.37
2018-07-26T02:15:12.681Z,14.10
2018-07-26T02:17:42.124Z,14.93
2018-07-26T02:20:11.670Z,14.63
2018-07-26T02:22:41.128Z,14.33
2018-07-26T02:25:10.561Z,15.43
2018-07-26T02:27:40.079Z,14.57
2018-07-26T02:30:09.542Z,15.17
2018-07-26T02:32:39.087Z,14.57
2018-07-26T02:35:08.537Z,14.57
2018-07-26T02:37:37.998Z,15.47
2018-07-26T02:40:07.882Z,14.93
2018-07-26T02:42:37.660Z,14.00
2018-07-26T02:45:07.163Z,14.37
2018-07-26T02:47:36.633Z,15.33
2018-07-26T02:50:06.788Z,15.18
2018-07-26T02:52:37.405Z,15.25
2018-07-26T02:55:07.533Z,15.40
2018-07-26T02:57:37.028Z,15.70
2018-07-26T03:00:08.125Z,15.80
2018-07-26T03:02:38.033Z,15.73
2018-07-26T03:05:08.057Z,15.77
2018-07-26T03:07:37.557Z,16.20
2018-07-26T03:10:07.326Z,16.30
2018-07-26T03:12:36.774Z,17.03
2018-07-26T03:15:07.310Z,16.73
2018-07-26T03:17:36.761Z,16.20
2018-07-26T03:20:06.273Z,16.53
2018-07-26T03:22:35.705Z,16.80
2018-07-26T03:25:05.619Z,16.83
2018-07-26T03:27:35.098Z,16.73
2018-07-26T03:30:04.968Z,15.60
2018-07-26T03:32:34.653Z,16.63
2018-07-26T03:35:04.470Z,17.23
2018-07-26T03:37:33.941Z,16.67
2018-07-26T03:40:03.519Z,17.40
2018-07-26T03:42:33.121Z,17.77
2018-07-26T03:45:02.817Z,16.83
2018-07-26T03:47:32.272Z,16.90
2018-07-26T03:50:01.717Z,17.43
2018-07-26T03:52:31.202Z,16.70
2018-07-26T03:55:00.649Z,16.10
2018-07-26T03:57:30.117Z,16.00
2018-07-26T03:59:59.918Z,16.33
2018-07-26T04:02:29.384Z,16.87
2018-07-26T04:04:58.890Z,16.13
2018-07-26T04:07:28.342Z,15.30
2018-07-26T04:09:57.813Z,15.17
2018-07-26T04:12:27.837Z,15.32
2018-07-26T04:14:57.343Z,15.43
2018-07-26T04:17:26.833Z,14.77
2018-07-26T04:19:56.292Z,15.50
2018-07-26T04:22:26.568Z,15.00
2018-07-26T04:24:56.022Z,15.37
2018-07-26T04:27:25.465Z,14.83
2018-07-26T04:29:54.976Z,14.77
2018-07-26T04:32:24.421Z,15.40
2018-07-26T04:34:53.886Z,14.13
2018-07-26T04:37:23.336Z,14.13
2018-07-26T04:39:52.807Z,13.97
2018-07-26T04:42:22.294Z,14.13
2018-07-26T04:44:51.771Z,13.93
2018-07-26T04:47:21.393Z,13.10
2018-07-26T04:49:50.836Z,13.77
2018-07-26T04:52:20.643Z,13.10
2018-07-26T04:54:50.124Z,13.23
2018-07-26T04:57:20.145Z,13.58
2018-07-26T04:59:50.185Z,12.78
2018-07-26T05:02:19.664Z,12.80
2018-07-26T05:04:49.698Z,12.28
2018-07-26T05:07:19.772Z,11.68
2018-07-26T05:09:49.863Z,11.97
2018-07-26T05:12:19.910Z,10.85
2018-07-26T05:14:49.946Z,10.78
2018-07-26T05:17:19.977Z,10.88
2018-07-26T05:19:50.026Z,12.93
2018-07-26T05:22:20.046Z,55.75
2018-07-26T05:24:50.075Z,11.83
2018-07-26T05:27:20.102Z,9.98
2018-07-26T05:29:50.112Z,9.33
2018-07-26T05:32:20.131Z,9.60
2018-07-26T05:34:50.173Z,9.55
2018-07-26T05:37:20.507Z,9.18
2018-07-26T05:39:50.888Z,8.73
2018-07-26T05:42:21.063Z,8.48
2018-07-26T05:44:51.068Z,8.55
2018-07-26T05:47:21.114Z,8.88
2018-07-26T05:49:51.142Z,8.25
2018-07-26T05:52:21.160Z,7.95
2018-07-26T05:54:51.182Z,7.83
2018-07-26T05:57:21.196Z,8.00
2018-07-26T05:59:51.229Z,7.95
2018-07-26T06:02:21.381Z,7.80
2018-07-26T06:04:51.402Z,7.12
2018-07-26T06:07:21.544Z,7.30
2018-07-26T06:09:51.272Z,7.13
2018-07-26T06:12:21.020Z,6.80
2018-07-26T06:14:51.532Z,7.50
2018-07-26T06:17:21.328Z,6.87
2018-07-26T06:19:51.084Z,6.70
2018-07-26T06:22:20.894Z,7.00
2018-07-26T06:24:50.636Z,6.63
2018-07-26T06:27:20.390Z,6.27
2018-07-26T06:29:50.106Z,6.70
2018-07-26T06:32:19.829Z,6.20
2018-07-26T06:34:49.560Z,6.27
2018-07-26T06:37:19.288Z,5.87
2018-07-26T06:39:49.070Z,5.80
2018-07-26T06:42:18.827Z,5.93
2018-07-26T06:44:48.552Z,6.17
2018-07-26T06:47:18.313Z,6.10
2018-07-26T06:49:48.060Z,5.70
2018-07-26T06:52:17.949Z,5.43
2018-07-26T06:54:47.688Z,5.70
2018-07-26T06:57:17.444Z,5.50
2018-07-26T06:59:47.189Z,5.53
2018-07-26T07:02:16.925Z,5.90
2018-07-26T07:04:46.680Z,4.93
2018-07-26T07:07:16.442Z,5.07
2018-07-26T07:09:46.178Z,4.93
2018-07-26T07:12:15.912Z,4.77
2018-07-26T07:14:45.669Z,5.30
2018-07-26T07:17:15.536Z,4.90
2018-07-26T07:19:45.266Z,5.07
2018-07-26T07:22:15.045Z,4.77
2018-07-26T07:24:44.779Z,4.77
2018-07-26T07:27:14.508Z,4.87
2018-07-26T07:29:44.274Z,4.73
2018-07-26T07:32:14.080Z,4.20
2018-07-26T07:34:43.824Z,4.50
2018-07-26T07:37:13.560Z,4.20
2018-07-26T07:39:43.273Z,5.10
2018-07-26T07:42:13.385Z,4.27
2018-07-26T07:44:43.101Z,3.77
2018-07-26T07:47:12.838Z,3.90
2018-07-26T07:49:42.756Z,4.00
2018-07-26T07:52:12.473Z,3.63
2018-07-26T07:54:42.233Z,3.97
2018-07-26T07:57:11.933Z,3.80
2018-07-26T07:59:41.679Z,3.87
2018-07-26T08:02:11.410Z,4.27
2018-07-26T08:04:41.144Z,3.90
2018-07-26T08:07:11.174Z,3.47
2018-07-26T08:09:40.921Z,3.40
2018-07-26T08:12:10.667Z,3.60
2018-07-26T08:14:40.454Z,4.17
2018-07-26T08:17:10.565Z,3.40
2018-07-26T08:19:40.475Z,3.10
2018-07-26T08:22:10.541Z,4.10
2018-07-26T08:24:40.731Z,3.60
2018-07-26T08:27:10.489Z,4.00
2018-07-26T08:29:40.225Z,3.90
2018-07-26T08:32:10.082Z,3.87
2018-07-26T08:34:39.788Z,3.87
2018-07-26T08:37:09.530Z,4.63
2018-07-26T08:39:39.238Z,4.40
2018-07-26T08:42:09.094Z,4.27
2018-07-26T08:44:38.973Z,4.60
2018-07-26T08:47:08.688Z,4.37
2018-07-26T08:49:38.414Z,4.60
2018-07-26T08:52:08.531Z,4.50
2018-07-26T08:54:38.468Z,4.60
2018-07-26T08:57:08.361Z,4.50
2018-07-26T08:59:38.088Z,4.77
2018-07-26T09:02:07.895Z,5.00
2018-07-26T09:04:37.596Z,4.40
2018-07-26T09:07:07.366Z,4.97
2018-07-26T09:09:37.127Z,4.53
2018-07-26T09:12:06.905Z,4.47
2018-07-26T09:14:36.640Z,4.37
2018-07-26T09:17:06.427Z,4.67
2018-07-26T09:19:36.378Z,4.70
2018-07-26T09:22:06.673Z,4.90
2018-07-26T09:24:36.422Z,4.93
2018-07-26T09:27:06.178Z,5.03
2018-07-26T09:29:35.889Z,4.77
2018-07-26T09:32:05.934Z,4.95
2018-07-26T09:34:36.413Z,5.17
2018-07-26T09:37:06.455Z,5.30
2018-07-26T09:39:36.856Z,4.75
2018-07-26T09:42:06.869Z,4.65
2018-07-26T09:44:36.896Z,4.60
2018-07-26T09:47:06.948Z,5.25
2018-07-26T09:49:36.987Z,4.45
2018-07-26T09:52:07.252Z,4.70
2018-07-26T09:54:37.262Z,4.10
2018-07-26T09:57:07.453Z,4.83
2018-07-26T09:59:37.458Z,4.00
2018-07-26T10:02:07.732Z,4.22
2018-07-26T10:04:37.768Z,4.45
2018-07-26T10:07:07.777Z,4.90
2018-07-26T10:09:37.792Z,4.45
2018-07-26T10:12:07.872Z,4.80
2018-07-26T10:14:37.898Z,4.78
2018-07-26T10:17:07.949Z,4.70
2018-07-26T10:19:37.940Z,4.60
2018-07-26T10:22:08.089Z,4.75
2018-07-26T10:24:38.096Z,4.85
2018-07-26T10:27:08.486Z,4.65
2018-07-26T10:29:38.497Z,4.87
2018-07-26T10:32:08.517Z,4.62
2018-07-26T10:34:38.521Z,4.62
2018-07-26T10:37:08.524Z,4.75
2018-07-26T10:39:38.556Z,5.30
2018-07-26T10:42:08.552Z,4.92
2018-07-26T10:44:38.753Z,4.20
2018-07-26T10:47:08.917Z,4.60
2018-07-26T10:49:38.973Z,4.78
2018-07-26T10:52:08.974Z,5.62
2018-07-26T10:54:38.995Z,5.20
2018-07-26T10:57:09.006Z,4.97
2018-07-26T10:59:39.018Z,4.78
2018-07-26T11:02:09.067Z,5.37
2018-07-26T11:04:39.081Z,5.00
2018-07-26T11:07:09.149Z,5.45
2018-07-26T11:09:39.187Z,4.95
2018-07-26T11:12:09.440Z,4.75
2018-07-26T11:14:39.488Z,4.87
2018-07-26T11:17:09.517Z,5.28
2018-07-26T11:19:39.822Z,4.72
2018-07-26T11:22:10.255Z,4.90
2018-07-26T11:24:44.895Z,4.90
2018-07-26T11:27:15.233Z,5.00
2018-07-26T11:29:45.586Z,5.25
2018-07-26T11:32:16.103Z,5.10
2018-07-26T11:34:46.376Z,5.12
2018-07-26T11:37:16.738Z,5.00
2018-07-26T11:39:47.069Z,5.37
2018-07-26T11:42:17.420Z,5.22
2018-07-26T11:44:47.769Z,5.10
2018-07-26T11:47:18.052Z,4.62
2018-07-26T11:49:48.433Z,4.10
2018-07-26T11:52:18.740Z,4.97
2018-07-26T11:54:49.073Z,4.42
2018-07-26T11:57:19.392Z,3.87
2018-07-26T11:59:50.073Z,4.47
2018-07-26T12:02:20.379Z,4.60
2018-07-26T12:04:51.136Z,5.25
2018-07-26T12:07:21.424Z,5.00
2018-07-26T12:09:51.857Z,5.05
2018-07-26T12:12:22.165Z,4.75
2018-07-26T12:14:52.459Z,5.50
2018-07-26T12:17:22.817Z,4.87
2018-07-26T12:19:53.173Z,4.95
2018-07-26T12:22:23.633Z,5.70
2018-07-26T12:24:53.960Z,5.40
2018-07-26T12:27:24.284Z,5.28
2018-07-26T12:29:54.645Z,5.85
2018-07-26T12:32:24.953Z,5.00
2018-07-26T12:34:55.242Z,5.00
2018-07-26T12:37:25.540Z,5.03
2018-07-26T12:39:55.861Z,5.50
2018-07-26T12:42:26.157Z,5.10
2018-07-26T12:44:56.516Z,5.55
2018-07-26T12:47:26.888Z,5.30
2018-07-26T12:49:57.392Z,5.40
2018-07-26T12:52:27.709Z,5.25
2018-07-26T12:54:57.754Z,5.22
2018-07-26T12:57:28.037Z,5.50
2018-07-26T12:59:58.074Z,5.30
2018-07-26T13:02:28.421Z,5.10
2018-07-26T13:04:58.707Z,5.40
2018-07-26T13:07:29.051Z,6.40
2018-07-26T13:09:59.344Z,5.72
2018-07-26T13:12:29.641Z,5.22
2018-07-26T13:14:59.947Z,5.05
2018-07-26T13:17:30.247Z,5.05
2018-07-26T13:20:00.565Z,5.58
2018-07-26T13:22:30.971Z,6.03
2018-07-26T13:25:01.334Z,5.83
2018-07-26T13:27:31.358Z,5.90
2018-07-26T13:30:01.660Z,6.03
2018-07-26T13:32:31.951Z,5.78
2018-07-26T13:35:02.270Z,5.75
2018-07-26T13:37:32.542Z,5.50
2018-07-26T13:40:02.915Z,5.70
2018-07-26T13:42:33.354Z,5.97
2018-07-26T13:45:03.631Z,5.78
2018-07-26T13:47:33.944Z,5.40
2018-07-26T13:50:04.346Z,5.50
2018-07-26T13:52:34.662Z,5.70
2018-07-26T13:55:05.965Z,5.67
2018-07-26T13:57:36.242Z,5.58
2018-07-26T14:00:06.704Z,5.75
2018-07-26T14:02:37.249Z,5.90
2018-07-26T14:05:07.601Z,5.53
2018-07-26T14:07:37.888Z,6.22
2018-07-26T14:10:09.056Z,5.97
2018-07-26T14:12:39.699Z,6.33
2018-07-26T14:15:11.033Z,6.00
2018-07-26T14:17:41.308Z,6.10
2018-07-26T14:20:12.725Z,6.28
2018-07-26T14:22:43.136Z,6.37
2018-07-26T14:25:13.476Z,5.85
2018-07-26T14:27:43.788Z,5.58
2018-07-26T14:30:14.377Z,5.80
2018-07-26T14:35:26.470Z,5.60
2018-07-26T14:37:56.765Z,5.87
2018-07-26T14:40:27.140Z,5.90
2018-07-26T14:42:57.416Z,5.90
2018-07-26T14:45:27.749Z,5.72
2018-07-26T14:47:58.053Z,5.62
2018-07-26T14:50:28.373Z,5.95
2018-07-26T14:52:58.673Z,5.10
2018-07-26T14:55:28.973Z,5.60
2018-07-26T14:57:59.257Z,5.67
2018-07-26T15:00:29.560Z,6.03
2018-07-26T15:03:00.268Z,6.33
2018-07-26T15:05:30.629Z,5.83
2018-07-26T15:08:00.978Z,5.28
2018-07-26T15:10:31.733Z,5.40
2018-07-26T15:13:02.007Z,5.30
2018-07-26T15:15:32.361Z,5.65
2018-07-26T15:18:02.781Z,5.95
2018-07-26T15:20:33.158Z,5.80
2018-07-26T15:23:03.909Z,6.33
2018-07-26T15:25:34.337Z,5.37
2018-07-26T15:28:04.688Z,6.95
2018-07-26T15:30:35.037Z,5.75
2018-07-26T15:33:05.390Z,5.08
2018-07-26T15:35:35.709Z,5.25
2018-07-26T15:38:06.379Z,5.37
2018-07-26T15:40:36.694Z,5.15
2018-07-26T15:43:07.485Z,4.87
2018-07-26T15:45:37.869Z,4.17
2018-07-26T15:48:08.269Z,4.20
2018-07-26T15:50:38.618Z,4.40
2018-07-26T15:53:08.980Z,4.53
2018-07-26T15:55:39.353Z,4.67
2018-07-26T15:58:09.921Z,5.00
2018-07-26T16:00:40.289Z,4.80
2018-07-26T16:03:10.701Z,4.55
2018-07-26T16:05:41.449Z,4.12
2018-07-26T16:08:11.843Z,4.15
2018-07-26T16:10:41.914Z,4.30
2018-07-26T16:13:12.198Z,4.35
2018-07-26T16:15:42.499Z,3.95
2018-07-26T16:18:12.912Z,4.10
2018-07-26T16:20:43.452Z,3.75
2018-07-26T16:23:13.912Z,3.45
2018-07-26T16:25:44.334Z,3.87
2018-07-26T16:28:14.665Z,4.58
2018-07-26T16:30:44.960Z,4.92
2018-07-26T16:33:15.297Z,4.05
2018-07-26T16:35:45.590Z,4.03
2018-07-26T16:38:15.901Z,3.62
2018-07-26T16:40:46.244Z,3.67
2018-07-26T16:43:16.541Z,3.90
2018-07-26T16:45:46.877Z,3.80
2018-07-26T16:48:17.213Z,3.70
2018-07-26T16:50:47.549Z,4.50
2018-07-26T16:53:17.837Z,5.60
2018-07-26T16:55:48.217Z,5.50
2018-07-26T16:58:18.545Z,5.40
2018-07-26T17:00:49.214Z,4.97
2018-07-26T17:03:19.537Z,4.90
2018-07-26T17:05:49.841Z,4.78
2018-07-26T17:08:20.387Z,5.17
2018-07-26T17:10:50.693Z,5.00
2018-07-26T17:13:21.108Z,4.75
2018-07-26T17:15:51.596Z,4.42
2018-07-26T17:18:21.901Z,3.65
2018-07-26T17:20:52.189Z,2.90
2018-07-26T17:23:22.599Z,3.20
2018-07-26T17:25:52.949Z,2.58
2018-07-26T17:28:23.236Z,3.27
2018-07-26T17:30:53.568Z,3.22
2018-07-26T17:33:23.868Z,3.62
2018-07-26T17:35:54.794Z,3.25
2018-07-26T17:38:25.097Z,3.42
2018-07-26T17:40:55.801Z,3.80
2018-07-26T17:43:26.099Z,3.75
2018-07-26T17:45:56.494Z,3.62
2018-07-26T17:48:26.797Z,3.70
2018-07-26T17:50:57.185Z,5.25
2018-07-26T17:53:27.581Z,4.53
2018-07-26T17:55:57.940Z,4.15
2018-07-26T17:58:28.253Z,4.58
2018-07-26T18:00:58.565Z,5.15
2018-07-26T18:03:28.912Z,4.97
2018-07-26T18:05:59.254Z,4.87
2018-07-26T18:08:29.767Z,4.62
2018-07-26T18:11:00.217Z,4.70
2018-07-26T18:13:30.641Z,5.00
2018-07-26T18:16:00.988Z,4.65
2018-07-26T18:18:31.756Z,5.10
2018-07-26T18:21:02.059Z,5.10
2018-07-26T18:23:32.508Z,4.72
2018-07-26T18:26:02.856Z,4.92
2018-07-26T18:28:33.789Z,5.03
2018-07-26T18:31:04.477Z,4.75
2018-07-26T18:33:34.803Z,5.30
2018-07-26T18:36:05.285Z,5.12
2018-07-26T18:38:35.664Z,4.90
2018-07-26T18:41:06.226Z,5.20
2018-07-26T18:43:36.666Z,5.10
2018-07-26T18:46:07.148Z,5.10
2018-07-26T18:48:37.509Z,5.30
2018-07-26T18:51:07.827Z,5.47
2018-07-26T18:53:38.158Z,5.12
2018-07-26T18:56:08.531Z,5.12
2018-07-26T18:58:39.057Z,6.00
2018-07-26T19:01:09.381Z,5.15
2018-07-26T19:03:39.697Z,5.17
2018-07-26T19:06:10.370Z,6.17
2018-07-26T19:08:40.754Z,5.92
2018-07-26T19:11:11.285Z,6.58
2018-07-26T19:13:41.580Z,6.12
2018-07-26T19:16:11.909Z,6.28
2018-07-26T19:18:42.228Z,6.90
2018-07-26T19:21:12.536Z,6.22
2018-07-26T19:23:43.041Z,6.20
2018-07-26T19:26:13.550Z,5.42
2018-07-26T19:28:43.945Z,5.72
2018-07-26T19:31:14.228Z,5.40
2018-07-26T19:33:44.579Z,5.53
2018-07-26T19:36:14.987Z,5.80
2018-07-26T19:38:45.577Z,5.65
2018-07-26T19:41:15.881Z,5.90
2018-07-26T19:43:46.272Z,5.78
2018-07-26T19:46:16.580Z,6.03
2018-07-26T19:48:46.932Z,5.40
2018-07-26T19:51:17.232Z,5.60
2018-07-26T19:53:47.600Z,5.97
2018-07-26T19:56:18.130Z,6.30
2018-07-26T19:58:48.545Z,5.87
2018-07-26T20:01:19.034Z,6.72
2018-07-26T20:03:49.486Z,6.12
2018-07-26T20:06:20.006Z,6.65
2018-07-26T20:08:50.076Z,6.80
2018-07-26T20:11:20.449Z,6.85
2018-07-26T20:13:51.052Z,6.50
2018-07-26T20:16:21.417Z,6.70
2018-07-26T20:18:51.792Z,7.22
2018-07-26T20:21:22.496Z,7.10
2018-07-26T20:23:53.320Z,6.85
2018-07-26T20:26:23.657Z,7.20
2018-07-26T20:28:53.952Z,7.28
2018-07-26T20:31:24.563Z,7.28
2018-07-26T20:33:55.066Z,7.45
2018-07-26T20:36:25.459Z,7.40
2018-07-26T20:38:55.812Z,7.90
2018-07-26T20:41:26.378Z,7.97
2018-07-26T20:43:56.714Z,7.40
2018-07-26T20:46:27.077Z,7.28
2018-07-26T20:48:57.356Z,8.10
2018-07-26T20:51:27.124Z,8.88
2018-07-26T20:53:57.459Z,8.98
2018-07-26T20:56:27.956Z,9.38
2018-07-26T20:58:58.289Z,8.95
2018-07-26T21:01:28.577Z,8.90
2018-07-26T21:03:58.418Z,8.47
2018-07-26T21:06:28.240Z,8.70
2018-07-26T21:08:57.967Z,8.27
2018-07-26T21:11:28.310Z,8.85
2018-07-26T21:13:58.611Z,7.92
2018-07-26T21:16:28.341Z,8.30
2018-07-26T21:18:58.625Z,9.48
2018-07-26T21:21:28.390Z,8.87
2018-07-26T21:23:58.617Z,9.00
2018-07-26T21:26:28.337Z,9.30
2018-07-26T21:28:58.909Z,8.43
2018-07-26T21:31:28.612Z,8.50
2018-07-26T21:33:58.317Z,9.23
2018-07-26T21:36:28.065Z,9.10
2018-07-26T21:38:57.785Z,8.33
2018-07-26T21:41:28.114Z,8.70
2018-07-26T21:43:57.841Z,8.80
2018-07-26T21:46:27.601Z,8.77
2018-07-26T21:48:57.508Z,8.30
2018-07-26T21:51:27.331Z,8.30
2018-07-26T21:53:57.171Z,8.53
2018-07-26T21:56:26.921Z,8.73
2018-07-26T21:58:56.641Z,8.77
2018-07-26T22:01:26.389Z,8.63
2018-07-26T22:03:55.845Z,8.97
2018-07-26T22:06:25.594Z,9.17
2018-07-26T22:08:55.933Z,9.18
2018-07-26T22:11:25.697Z,9.37
2018-07-26T22:13:55.465Z,9.80
2018-07-26T22:16:25.204Z,9.30
2018-07-26T22:18:55.201Z,9.20
2018-07-26T22:21:24.952Z,9.00
2018-07-26T22:23:54.743Z,9.70
2018-07-26T22:26:24.890Z,9.90
2018-07-26T22:28:54.701Z,9.13
2018-07-26T22:31:24.700Z,9.53
2018-07-26T22:33:54.486Z,9.77
2018-07-26T22:36:24.270Z,9.70
2018-07-26T22:38:54.768Z,9.57
2018-07-26T22:41:27.362Z,9.87
2018-07-26T22:43:57.496Z,9.77
2018-07-26T22:46:27.228Z,10.17
2018-07-26T22:48:57.017Z,10.03
2018-07-26T22:51:26.809Z,9.53
2018-07-26T22:53:57.193Z,10.17
2018-07-26T22:56:28.283Z,11.00
2018-07-26T22:58:58.142Z,10.97
2018-07-26T23:01:27.909Z,10.37
2018-07-26T23:03:57.878Z,10.47
2018-07-26T23:06:27.761Z,9.93
2018-07-26T23:08:57.847Z,10.57
2018-07-26T23:11:28.257Z,10.30
2018-07-26T23:13:57.985Z,10.60
2018-07-26T23:16:27.853Z,10.70
2018-07-26T23:18:57.641Z,11.37
2018-07-26T23:21:27.405Z,11.30
2018-07-26T23:23:57.185Z,11.23
2018-07-26T23:26:27.714Z,11.83
2018-07-26T23:28:58.029Z,11.10
2018-07-26T23:31:29.037Z,10.68
2018-07-26T23:33:59.655Z,11.83
2018-07-26T23:36:29.956Z,11.45
2018-07-26T23:39:00.308Z,11.63
2018-07-26T23:41:30.613Z,11.60
2018-07-26T23:44:01.157Z,11.53
2018-07-26T23:46:31.534Z,11.73
2018-07-26T23:49:01.918Z,12.65
2018-07-26T23:51:32.622Z,11.40
2018-07-26T23:54:02.912Z,11.50
2018-07-26T23:56:33.352Z,11.43
2018-07-26T23:59:03.834Z,12.55
